sensor_id;sensor_type;location;lat;lon;timestamp;P1;durP1;ratioP1;P2;durP2;ratioP2
59147;SDS011;44930;52.878;6.168;2023-04-16T00:01:04;51.83;;;20.08;;
59147;SDS011;44930;52.878;6.168;2023-04-16T00:03:30;57.03;;;21.10;;
59147;SDS011;44930;52.878;6.168;2023-04-16T00:05:55;62.15;;;22.85;;
59147;SDS011;44930;52.878;6.168;2023-04-16T00:08:21;57.03;;;22.98;;
59147;SDS011;44930;52.878;6.168;2023-04-16T00:10:51;54.25;;;23.50;;
59147;SDS011;44930;52.878;6.168;2023-04-16T00:13:17;54.63;;;22.73;;
59147;SDS011;44930;52.878;6.168;2023-04-16T00:15:43;59.90;;;22.00;;
59147;SDS011;44930;52.878;6.168;2023-04-16T00:18:09;49.03;;;22.30;;
59147;SDS011;44930;52.878;6.168;2023-04-16T00:20:35;65.72;;;22.80;;
59147;SDS011;44930;52.878;6.168;2023-04-16T00:23:00;64.53;;;22.45;;
59147;SDS011;44930;52.878;6.168;2023-04-16T00:25:26;66.43;;;24.02;;
59147;SDS011;44930;52.878;6.168;2023-04-16T00:27:52;64.20;;;24.25;;
59147;SDS011;44930;52.878;6.168;2023-04-16T00:30:17;62.17;;;23.48;;
59147;SDS011;44930;52.878;6.168;2023-04-16T00:32:43;69.30;;;23.08;;
59147;SDS011;44930;52.878;6.168;2023-04-16T00:35:08;68.85;;;24.55;;
59147;SDS011;44930;52.878;6.168;2023-04-16T00:37:34;65.63;;;23.13;;
59147;SDS011;44930;52.878;6.168;2023-04-16T00:40:00;67.60;;;24.55;;
59147;SDS011;44930;52.878;6.168;2023-04-16T00:42:25;60.92;;;24.10;;
59147;SDS011;44930;52.878;6.168;2023-04-16T00:44:51;62.47;;;23.50;;
59147;SDS011;44930;52.878;6.168;2023-04-16T00:47:18;66.55;;;22.88;;
59147;SDS011;44930;52.878;6.168;2023-04-16T00:49:45;62.92;;;24.25;;
59147;SDS011;44930;52.878;6.168;2023-04-16T00:52:11;77.10;;;25.30;;
59147;SDS011;44930;52.878;6.168;2023-04-16T00:54:37;66.10;;;23.60;;
59147;SDS011;44930;52.878;6.168;2023-04-16T00:57:03;100.85;;;26.88;;
59147;SDS011;44930;52.878;6.168;2023-04-16T00:59:29;59.03;;;25.02;;
59147;SDS011;44930;52.878;6.168;2023-04-16T01:01:56;59.78;;;23.52;;
59147;SDS011;44930;52.878;6.168;2023-04-16T01:04:21;64.28;;;23.45;;
59147;SDS011;44930;52.878;6.168;2023-04-16T01:06:47;62.50;;;24.10;;
59147;SDS011;44930;52.878;6.168;2023-04-16T01:09:13;69.00;;;25.30;;
59147;SDS011;44930;52.878;6.168;2023-04-16T01:11:38;61.50;;;23.50;;
59147;SDS011;44930;52.878;6.168;2023-04-16T01:14:04;64.00;;;23.35;;
59147;SDS011;44930;52.878;6.168;2023-04-16T01:16:30;69.07;;;24.35;;
59147;SDS011;44930;52.878;6.168;2023-04-16T01:18:56;55.20;;;23.88;;
59147;SDS011;44930;52.878;6.168;2023-04-16T01:21:22;56.67;;;22.50;;
59147;SDS011;44930;52.878;6.168;2023-04-16T01:23:47;52.75;;;20.75;;
59147;SDS011;44930;52.878;6.168;2023-04-16T01:26:13;62.58;;;23.92;;
59147;SDS011;44930;52.878;6.168;2023-04-16T01:28:39;52.83;;;21.13;;
59147;SDS011;44930;52.878;6.168;2023-04-16T01:31:04;62.25;;;24.23;;
59147;SDS011;44930;52.878;6.168;2023-04-16T01:33:30;62.03;;;22.75;;
59147;SDS011;44930;52.878;6.168;2023-04-16T01:35:55;57.60;;;20.92;;
59147;SDS011;44930;52.878;6.168;2023-04-16T01:38:21;59.60;;;24.70;;
59147;SDS011;44930;52.878;6.168;2023-04-16T01:40:47;58.17;;;22.85;;
59147;SDS011;44930;52.878;6.168;2023-04-16T01:43:12;57.47;;;23.58;;
59147;SDS011;44930;52.878;6.168;2023-04-16T01:45:38;56.10;;;22.38;;
59147;SDS011;44930;52.878;6.168;2023-04-16T01:48:04;57.13;;;23.23;;
59147;SDS011;44930;52.878;6.168;2023-04-16T01:50:30;56.60;;;22.38;;
59147;SDS011;44930;52.878;6.168;2023-04-16T01:52:56;58.72;;;23.88;;
59147;SDS011;44930;52.878;6.168;2023-04-16T01:55:21;57.33;;;22.42;;
59147;SDS011;44930;52.878;6.168;2023-04-16T01:57:47;55.85;;;22.10;;
59147;SDS011;44930;52.878;6.168;2023-04-16T02:00:13;55.35;;;22.65;;
59147;SDS011;44930;52.878;6.168;2023-04-16T02:02:38;45.20;;;21.15;;
59147;SDS011;44930;52.878;6.168;2023-04-16T02:05:04;58.13;;;22.48;;
59147;SDS011;44930;52.878;6.168;2023-04-16T02:07:30;60.08;;;23.85;;
59147;SDS011;44930;52.878;6.168;2023-04-16T02:09:56;66.20;;;23.80;;
59147;SDS011;44930;52.878;6.168;2023-04-16T02:12:22;49.38;;;22.95;;
59147;SDS011;44930;52.878;6.168;2023-04-16T02:14:48;50.75;;;22.30;;
59147;SDS011;44930;52.878;6.168;2023-04-16T02:17:13;55.40;;;23.80;;
59147;SDS011;44930;52.878;6.168;2023-04-16T02:19:39;59.53;;;23.80;;
59147;SDS011;44930;52.878;6.168;2023-04-16T02:22:05;53.63;;;22.15;;
59147;SDS011;44930;52.878;6.168;2023-04-16T02:24:31;61.35;;;23.80;;
59147;SDS011;44930;52.878;6.168;2023-04-16T02:26:56;53.97;;;23.58;;
59147;SDS011;44930;52.878;6.168;2023-04-16T02:29:22;61.10;;;22.55;;
59147;SDS011;44930;52.878;6.168;2023-04-16T02:31:48;55.95;;;24.08;;
59147;SDS011;44930;52.878;6.168;2023-04-16T02:34:14;59.25;;;23.20;;
59147;SDS011;44930;52.878;6.168;2023-04-16T02:36:39;49.75;;;23.48;;
59147;SDS011;44930;52.878;6.168;2023-04-16T02:39:05;60.33;;;23.77;;
59147;SDS011;44930;52.878;6.168;2023-04-16T02:41:31;54.65;;;23.58;;
59147;SDS011;44930;52.878;6.168;2023-04-16T02:43:56;58.47;;;22.60;;
59147;SDS011;44930;52.878;6.168;2023-04-16T02:46:22;59.30;;;22.33;;
59147;SDS011;44930;52.878;6.168;2023-04-16T02:48:47;56.00;;;23.63;;
59147;SDS011;44930;52.878;6.168;2023-04-16T02:51:13;57.00;;;22.90;;
59147;SDS011;44930;52.878;6.168;2023-04-16T02:53:38;53.45;;;21.88;;
59147;SDS011;44930;52.878;6.168;2023-04-16T02:56:04;55.70;;;23.17;;
59147;SDS011;44930;52.878;6.168;2023-04-16T02:58:30;52.50;;;23.17;;
59147;SDS011;44930;52.878;6.168;2023-04-16T03:00:56;68.93;;;23.20;;
59147;SDS011;44930;52.878;6.168;2023-04-16T03:03:21;53.00;;;23.10;;
59147;SDS011;44930;52.878;6.168;2023-04-16T03:05:47;59.80;;;22.83;;
59147;SDS011;44930;52.878;6.168;2023-04-16T03:08:13;49.53;;;22.20;;
59147;SDS011;44930;52.878;6.168;2023-04-16T03:10:38;49.58;;;22.35;;
59147;SDS011;44930;52.878;6.168;2023-04-16T03:13:05;58.67;;;22.65;;
59147;SDS011;44930;52.878;6.168;2023-04-16T03:15:31;54.03;;;22.58;;
59147;SDS011;44930;52.878;6.168;2023-04-16T03:17:57;58.90;;;22.38;;
59147;SDS011;44930;52.878;6.168;2023-04-16T03:20:23;53.40;;;23.15;;
59147;SDS011;44930;52.878;6.168;2023-04-16T03:22:49;54.03;;;22.35;;
59147;SDS011;44930;52.878;6.168;2023-04-16T03:25:16;63.13;;;24.63;;
59147;SDS011;44930;52.878;6.168;2023-04-16T03:27:42;60.90;;;22.73;;
59147;SDS011;44930;52.878;6.168;2023-04-16T03:30:11;55.95;;;25.38;;
59147;SDS011;44930;52.878;6.168;2023-04-16T03:32:38;57.88;;;23.48;;
59147;SDS011;44930;52.878;6.168;2023-04-16T03:35:04;48.85;;;23.00;;
59147;SDS011;44930;52.878;6.168;2023-04-16T03:37:31;60.33;;;25.60;;
59147;SDS011;44930;52.878;6.168;2023-04-16T03:39:57;59.63;;;24.88;;
59147;SDS011;44930;52.878;6.168;2023-04-16T03:42:23;65.28;;;25.05;;
59147;SDS011;44930;52.878;6.168;2023-04-16T03:44:49;58.88;;;24.77;;
59147;SDS011;44930;52.878;6.168;2023-04-16T03:47:14;56.00;;;26.30;;
59147;SDS011;44930;52.878;6.168;2023-04-16T03:49:40;65.68;;;25.30;;
59147;SDS011;44930;52.878;6.168;2023-04-16T03:52:06;60.00;;;26.95;;
59147;SDS011;44930;52.878;6.168;2023-04-16T03:54:31;53.17;;;25.40;;
59147;SDS011;44930;52.878;6.168;2023-04-16T03:56:57;68.03;;;26.50;;
59147;SDS011;44930;52.878;6.168;2023-04-16T03:59:22;61.85;;;25.40;;
59147;SDS011;44930;52.878;6.168;2023-04-16T04:01:48;59.05;;;27.48;;
59147;SDS011;44930;52.878;6.168;2023-04-16T04:04:13;57.00;;;25.58;;
59147;SDS011;44930;52.878;6.168;2023-04-16T04:06:39;57.20;;;26.08;;
59147;SDS011;44930;52.878;6.168;2023-04-16T04:09:05;54.92;;;27.10;;
59147;SDS011;44930;52.878;6.168;2023-04-16T04:11:31;59.38;;;27.40;;
59147;SDS011;44930;52.878;6.168;2023-04-16T04:13:56;49.63;;;26.20;;
59147;SDS011;44930;52.878;6.168;2023-04-16T04:16:22;57.53;;;26.65;;
59147;SDS011;44930;52.878;6.168;2023-04-16T04:18:47;53.20;;;24.63;;
59147;SDS011;44930;52.878;6.168;2023-04-16T04:21:13;53.03;;;24.65;;
59147;SDS011;44930;52.878;6.168;2023-04-16T04:23:39;57.75;;;25.70;;
59147;SDS011;44930;52.878;6.168;2023-04-16T04:26:06;53.80;;;25.60;;
59147;SDS011;44930;52.878;6.168;2023-04-16T04:28:32;55.50;;;26.13;;
59147;SDS011;44930;52.878;6.168;2023-04-16T04:30:59;61.55;;;25.75;;
59147;SDS011;44930;52.878;6.168;2023-04-16T04:33:25;59.00;;;28.27;;
59147;SDS011;44930;52.878;6.168;2023-04-16T04:35:51;53.60;;;27.23;;
59147;SDS011;44930;52.878;6.168;2023-04-16T04:38:17;59.28;;;28.30;;
59147;SDS011;44930;52.878;6.168;2023-04-16T04:40:44;60.75;;;26.17;;
59147;SDS011;44930;52.878;6.168;2023-04-16T04:43:11;70.53;;;28.77;;
59147;SDS011;44930;52.878;6.168;2023-04-16T04:45:36;66.95;;;29.00;;
59147;SDS011;44930;52.878;6.168;2023-04-16T04:48:02;66.97;;;28.90;;
59147;SDS011;44930;52.878;6.168;2023-04-16T04:50:28;61.65;;;27.30;;
59147;SDS011;44930;52.878;6.168;2023-04-16T04:52:53;64.85;;;27.73;;
59147;SDS011;44930;52.878;6.168;2023-04-16T04:55:19;57.10;;;26.33;;
59147;SDS011;44930;52.878;6.168;2023-04-16T04:57:45;55.47;;;26.67;;
59147;SDS011;44930;52.878;6.168;2023-04-16T05:00:10;60.05;;;26.88;;
59147;SDS011;44930;52.878;6.168;2023-04-16T05:02:36;56.33;;;26.23;;
59147;SDS011;44930;52.878;6.168;2023-04-16T05:05:02;61.38;;;24.88;;
59147;SDS011;44930;52.878;6.168;2023-04-16T05:07:28;59.22;;;27.73;;
59147;SDS011;44930;52.878;6.168;2023-04-16T05:09:54;65.07;;;25.67;;
59147;SDS011;44930;52.878;6.168;2023-04-16T05:12:19;63.65;;;26.70;;
59147;SDS011;44930;52.878;6.168;2023-04-16T05:14:45;49.22;;;24.55;;
59147;SDS011;44930;52.878;6.168;2023-04-16T05:17:10;55.50;;;24.80;;
59147;SDS011;44930;52.878;6.168;2023-04-16T05:19:36;63.30;;;26.33;;
59147;SDS011;44930;52.878;6.168;2023-04-16T05:22:02;51.15;;;24.33;;
59147;SDS011;44930;52.878;6.168;2023-04-16T05:24:27;60.83;;;23.00;;
59147;SDS011;44930;52.878;6.168;2023-04-16T05:26:53;56.80;;;24.55;;
59147;SDS011;44930;52.878;6.168;2023-04-16T05:29:21;53.00;;;24.15;;
59147;SDS011;44930;52.878;6.168;2023-04-16T05:31:46;51.53;;;23.63;;
59147;SDS011;44930;52.878;6.168;2023-04-16T05:34:12;53.97;;;25.42;;
59147;SDS011;44930;52.878;6.168;2023-04-16T05:36:38;68.65;;;25.80;;
59147;SDS011;44930;52.878;6.168;2023-04-16T05:39:03;66.38;;;26.02;;
59147;SDS011;44930;52.878;6.168;2023-04-16T05:41:29;62.13;;;24.00;;
59147;SDS011;44930;52.878;6.168;2023-04-16T05:43:55;58.35;;;25.98;;
59147;SDS011;44930;52.878;6.168;2023-04-16T05:46:21;52.45;;;23.65;;
59147;SDS011;44930;52.878;6.168;2023-04-16T05:48:46;59.67;;;24.52;;
59147;SDS011;44930;52.878;6.168;2023-04-16T05:51:12;60.25;;;25.38;;
59147;SDS011;44930;52.878;6.168;2023-04-16T05:53:37;57.80;;;24.15;;
59147;SDS011;44930;52.878;6.168;2023-04-16T05:56:03;61.38;;;23.85;;
59147;SDS011;44930;52.878;6.168;2023-04-16T05:58:28;65.05;;;25.38;;
59147;SDS011;44930;52.878;6.168;2023-04-16T06:00:54;68.00;;;25.17;;
59147;SDS011;44930;52.878;6.168;2023-04-16T06:03:20;59.50;;;25.27;;
59147;SDS011;44930;52.878;6.168;2023-04-16T06:05:45;53.70;;;23.27;;
59147;SDS011;44930;52.878;6.168;2023-04-16T06:08:11;66.10;;;25.42;;
59147;SDS011;44930;52.878;6.168;2023-04-16T06:10:37;53.60;;;24.50;;
59147;SDS011;44930;52.878;6.168;2023-04-16T06:13:02;60.83;;;22.73;;
59147;SDS011;44930;52.878;6.168;2023-04-16T06:15:28;50.65;;;21.98;;
59147;SDS011;44930;52.878;6.168;2023-04-16T06:17:54;55.25;;;22.27;;
59147;SDS011;44930;52.878;6.168;2023-04-16T06:20:20;60.03;;;23.58;;
59147;SDS011;44930;52.878;6.168;2023-04-16T06:22:45;52.13;;;23.73;;
59147;SDS011;44930;52.878;6.168;2023-04-16T06:25:11;52.78;;;23.38;;
59147;SDS011;44930;52.878;6.168;2023-04-16T06:27:37;54.40;;;22.63;;
59147;SDS011;44930;52.878;6.168;2023-04-16T06:30:02;54.33;;;21.52;;
59147;SDS011;44930;52.878;6.168;2023-04-16T06:32:28;50.03;;;22.50;;
59147;SDS011;44930;52.878;6.168;2023-04-16T06:34:54;57.72;;;21.77;;
59147;SDS011;44930;52.878;6.168;2023-04-16T06:37:22;58.38;;;22.27;;
59147;SDS011;44930;52.878;6.168;2023-04-16T06:39:48;72.22;;;21.85;;
59147;SDS011;44930;52.878;6.168;2023-04-16T06:42:13;56.55;;;21.52;;
59147;SDS011;44930;52.878;6.168;2023-04-16T06:44:39;61.03;;;21.55;;
59147;SDS011;44930;52.878;6.168;2023-04-16T06:47:04;60.65;;;21.55;;
59147;SDS011;44930;52.878;6.168;2023-04-16T06:49:30;59.78;;;21.00;;
59147;SDS011;44930;52.878;6.168;2023-04-16T06:51:56;63.17;;;22.40;;
59147;SDS011;44930;52.878;6.168;2023-04-16T06:54:21;56.60;;;21.80;;
59147;SDS011;44930;52.878;6.168;2023-04-16T06:56:47;52.08;;;20.63;;
59147;SDS011;44930;52.878;6.168;2023-04-16T06:59:12;56.55;;;21.38;;
59147;SDS011;44930;52.878;6.168;2023-04-16T07:01:38;61.42;;;22.73;;
59147;SDS011;44930;52.878;6.168;2023-04-16T07:04:05;72.50;;;24.13;;
59147;SDS011;44930;52.878;6.168;2023-04-16T07:06:30;67.30;;;24.83;;
59147;SDS011;44930;52.878;6.168;2023-04-16T07:08:56;47.97;;;21.35;;
59147;SDS011;44930;52.878;6.168;2023-04-16T07:11:21;49.53;;;20.27;;
59147;SDS011;44930;52.878;6.168;2023-04-16T07:13:47;52.03;;;20.35;;
59147;SDS011;44930;52.878;6.168;2023-04-16T07:16:15;58.03;;;21.60;;
59147;SDS011;44930;52.878;6.168;2023-04-16T07:18:41;48.45;;;21.67;;
59147;SDS011;44930;52.878;6.168;2023-04-16T07:21:07;61.92;;;21.90;;
59147;SDS011;44930;52.878;6.168;2023-04-16T07:23:32;52.08;;;20.70;;
59147;SDS011;44930;52.878;6.168;2023-04-16T07:25:58;51.30;;;20.95;;
59147;SDS011;44930;52.878;6.168;2023-04-16T07:28:24;42.88;;;20.23;;
59147;SDS011;44930;52.878;6.168;2023-04-16T07:30:50;46.42;;;20.00;;
59147;SDS011;44930;52.878;6.168;2023-04-16T07:33:15;50.42;;;21.02;;
59147;SDS011;44930;52.878;6.168;2023-04-16T07:35:41;50.88;;;19.63;;
59147;SDS011;44930;52.878;6.168;2023-04-16T07:38:06;43.25;;;19.40;;
59147;SDS011;44930;52.878;6.168;2023-04-16T07:40:32;47.80;;;19.58;;
59147;SDS011;44930;52.878;6.168;2023-04-16T07:42:58;45.83;;;19.52;;
59147;SDS011;44930;52.878;6.168;2023-04-16T07:45:23;41.92;;;21.27;;
59147;SDS011;44930;52.878;6.168;2023-04-16T07:47:49;45.80;;;21.33;;
59147;SDS011;44930;52.878;6.168;2023-04-16T07:50:14;46.47;;;20.38;;
59147;SDS011;44930;52.878;6.168;2023-04-16T07:52:41;52.75;;;21.27;;
59147;SDS011;44930;52.878;6.168;2023-04-16T07:55:07;45.85;;;20.55;;
59147;SDS011;44930;52.878;6.168;2023-04-16T07:57:33;38.80;;;19.92;;
59147;SDS011;44930;52.878;6.168;2023-04-16T07:59:59;53.05;;;21.15;;
59147;SDS011;44930;52.878;6.168;2023-04-16T08:02:29;45.28;;;20.55;;
59147;SDS011;44930;52.878;6.168;2023-04-16T08:04:54;54.28;;;21.20;;
59147;SDS011;44930;52.878;6.168;2023-04-16T08:07:20;55.45;;;19.88;;
59147;SDS011;44930;52.878;6.168;2023-04-16T08:09:46;42.33;;;19.23;;
59147;SDS011;44930;52.878;6.168;2023-04-16T08:12:13;43.88;;;19.52;;
59147;SDS011;44930;52.878;6.168;2023-04-16T08:14:40;41.15;;;18.63;;
59147;SDS011;44930;52.878;6.168;2023-04-16T08:17:05;39.30;;;19.20;;
59147;SDS011;44930;52.878;6.168;2023-04-16T08:19:31;40.42;;;17.75;;
59147;SDS011;44930;52.878;6.168;2023-04-16T08:21:56;48.25;;;20.27;;
59147;SDS011;44930;52.878;6.168;2023-04-16T08:24:23;39.15;;;18.55;;
59147;SDS011;44930;52.878;6.168;2023-04-16T08:26:48;42.88;;;18.13;;
59147;SDS011;44930;52.878;6.168;2023-04-16T08:29:14;36.50;;;17.17;;
59147;SDS011;44930;52.878;6.168;2023-04-16T08:31:39;31.17;;;16.83;;
59147;SDS011;44930;52.878;6.168;2023-04-16T08:34:05;43.00;;;17.55;;
59147;SDS011;44930;52.878;6.168;2023-04-16T08:36:31;37.15;;;18.10;;
59147;SDS011;44930;52.878;6.168;2023-04-16T08:38:56;36.17;;;17.45;;
59147;SDS011;44930;52.878;6.168;2023-04-16T08:41:22;39.35;;;16.85;;
59147;SDS011;44930;52.878;6.168;2023-04-16T08:43:49;38.47;;;17.27;;
59147;SDS011;44930;52.878;6.168;2023-04-16T08:46:17;39.35;;;19.05;;
59147;SDS011;44930;52.878;6.168;2023-04-16T08:48:48;46.42;;;19.13;;
59147;SDS011;44930;52.878;6.168;2023-04-16T08:51:18;47.83;;;17.38;;
59147;SDS011;44930;52.878;6.168;2023-04-16T08:53:53;37.35;;;17.38;;
59147;SDS011;44930;52.878;6.168;2023-04-16T08:56:26;30.17;;;16.55;;
59147;SDS011;44930;52.878;6.168;2023-04-16T08:58:51;39.25;;;15.93;;
59147;SDS011;44930;52.878;6.168;2023-04-16T09:01:18;37.15;;;16.55;;
59147;SDS011;44930;52.878;6.168;2023-04-16T09:03:48;34.75;;;14.93;;
59147;SDS011;44930;52.878;6.168;2023-04-16T09:06:14;29.38;;;13.85;;
59147;SDS011;44930;52.878;6.168;2023-04-16T09:08:42;32.10;;;16.08;;
59147;SDS011;44930;52.878;6.168;2023-04-16T09:11:09;32.28;;;15.68;;
59147;SDS011;44930;52.878;6.168;2023-04-16T09:13:36;35.75;;;14.85;;
59147;SDS011;44930;52.878;6.168;2023-04-16T09:16:02;35.65;;;14.05;;
59147;SDS011;44930;52.878;6.168;2023-04-16T09:18:29;33.15;;;16.02;;
59147;SDS011;44930;52.878;6.168;2023-04-16T09:20:55;36.97;;;16.30;;
59147;SDS011;44930;52.878;6.168;2023-04-16T09:23:21;27.80;;;15.75;;
59147;SDS011;44930;52.878;6.168;2023-04-16T09:25:47;36.72;;;16.30;;
59147;SDS011;44930;52.878;6.168;2023-04-16T09:28:36;32.65;;;14.98;;
59147;SDS011;44930;52.878;6.168;2023-04-16T09:31:10;28.92;;;15.52;;
59147;SDS011;44930;52.878;6.168;2023-04-16T09:33:38;31.10;;;14.63;;
59147;SDS011;44930;52.878;6.168;2023-04-16T09:36:04;32.80;;;15.65;;
59147;SDS011;44930;52.878;6.168;2023-04-16T09:38:44;33.35;;;16.20;;
59147;SDS011;44930;52.878;6.168;2023-04-16T09:41:12;34.17;;;15.80;;
59147;SDS011;44930;52.878;6.168;2023-04-16T09:43:40;29.08;;;14.40;;
59147;SDS011;44930;52.878;6.168;2023-04-16T09:46:13;33.78;;;15.52;;
59147;SDS011;44930;52.878;6.168;2023-04-16T09:48:38;30.55;;;14.68;;
59147;SDS011;44930;52.878;6.168;2023-04-16T09:51:04;30.38;;;15.55;;
59147;SDS011;44930;52.878;6.168;2023-04-16T09:53:31;35.28;;;13.77;;
59147;SDS011;44930;52.878;6.168;2023-04-16T09:58:23;34.63;;;14.93;;
59147;SDS011;44930;52.878;6.168;2023-04-16T10:00:59;33.92;;;14.45;;
59147;SDS011;44930;52.878;6.168;2023-04-16T10:03:32;34.75;;;14.32;;
59147;SDS011;44930;52.878;6.168;2023-04-16T10:06:09;36.92;;;15.45;;
59147;SDS011;44930;52.878;6.168;2023-04-16T10:08:47;31.27;;;13.43;;
59147;SDS011;44930;52.878;6.168;2023-04-16T10:11:13;28.98;;;14.88;;
59147;SDS011;44930;52.878;6.168;2023-04-16T10:13:39;34.53;;;15.23;;
59147;SDS011;44930;52.878;6.168;2023-04-16T10:16:05;30.80;;;14.85;;
59147;SDS011;44930;52.878;6.168;2023-04-16T10:18:35;27.70;;;13.75;;
59147;SDS011;44930;52.878;6.168;2023-04-16T10:21:02;33.75;;;14.40;;
59147;SDS011;44930;52.878;6.168;2023-04-16T10:23:28;37.97;;;15.43;;
59147;SDS011;44930;52.878;6.168;2023-04-16T10:25:54;38.75;;;14.70;;
59147;SDS011;44930;52.878;6.168;2023-04-16T10:28:22;34.25;;;15.93;;
59147;SDS011;44930;52.878;6.168;2023-04-16T10:30:48;32.53;;;14.38;;
59147;SDS011;44930;52.878;6.168;2023-04-16T10:33:22;30.63;;;14.45;;
59147;SDS011;44930;52.878;6.168;2023-04-16T10:35:51;37.13;;;14.77;;
59147;SDS011;44930;52.878;6.168;2023-04-16T10:38:30;30.77;;;14.95;;
59147;SDS011;44930;52.878;6.168;2023-04-16T10:41:02;28.63;;;15.05;;
59147;SDS011;44930;52.878;6.168;2023-04-16T10:43:29;30.33;;;12.88;;
59147;SDS011;44930;52.878;6.168;2023-04-16T10:46:00;31.42;;;14.48;;
59147;SDS011;44930;52.878;6.168;2023-04-16T10:48:46;31.67;;;13.48;;
59147;SDS011;44930;52.878;6.168;2023-04-16T10:51:22;30.17;;;13.90;;
59147;SDS011;44930;52.878;6.168;2023-04-16T10:53:54;28.17;;;14.93;;
59147;SDS011;44930;52.878;6.168;2023-04-16T10:56:26;40.50;;;15.40;;
59147;SDS011;44930;52.878;6.168;2023-04-16T10:58:54;25.98;;;13.38;;
59147;SDS011;44930;52.878;6.168;2023-04-16T11:01:27;30.27;;;13.95;;
59147;SDS011;44930;52.878;6.168;2023-04-16T11:03:55;35.17;;;14.07;;
59147;SDS011;44930;52.878;6.168;2023-04-16T11:06:24;33.58;;;15.57;;
59147;SDS011;44930;52.878;6.168;2023-04-16T11:08:51;31.55;;;13.65;;
59147;SDS011;44930;52.878;6.168;2023-04-16T11:11:17;30.23;;;14.30;;
59147;SDS011;44930;52.878;6.168;2023-04-16T11:13:43;28.83;;;14.30;;
59147;SDS011;44930;52.878;6.168;2023-04-16T11:16:10;36.33;;;14.15;;
59147;SDS011;44930;52.878;6.168;2023-04-16T11:18:40;33.35;;;15.55;;
59147;SDS011;44930;52.878;6.168;2023-04-16T11:21:09;29.52;;;13.25;;
59147;SDS011;44930;52.878;6.168;2023-04-16T11:23:46;25.27;;;13.18;;
59147;SDS011;44930;52.878;6.168;2023-04-16T11:26:23;37.42;;;15.13;;
59147;SDS011;44930;52.878;6.168;2023-04-16T11:28:53;27.77;;;12.88;;
59147;SDS011;44930;52.878;6.168;2023-04-16T11:31:24;33.38;;;14.45;;
59147;SDS011;44930;52.878;6.168;2023-04-16T11:33:51;27.63;;;13.57;;
59147;SDS011;44930;52.878;6.168;2023-04-16T11:36:16;28.83;;;13.93;;
59147;SDS011;44930;52.878;6.168;2023-04-16T11:38:42;35.03;;;13.88;;
59147;SDS011;44930;52.878;6.168;2023-04-16T11:41:08;31.05;;;13.77;;
59147;SDS011;44930;52.878;6.168;2023-04-16T11:43:35;30.95;;;14.57;;
59147;SDS011;44930;52.878;6.168;2023-04-16T11:46:02;25.27;;;13.38;;
59147;SDS011;44930;52.878;6.168;2023-04-16T11:48:45;30.85;;;13.05;;
59147;SDS011;44930;52.878;6.168;2023-04-16T11:51:12;27.80;;;15.27;;
59147;SDS011;44930;52.878;6.168;2023-04-16T11:53:44;27.70;;;13.45;;
59147;SDS011;44930;52.878;6.168;2023-04-16T11:56:11;31.58;;;15.15;;
59147;SDS011;44930;52.878;6.168;2023-04-16T11:58:37;32.97;;;13.52;;
59147;SDS011;44930;52.878;6.168;2023-04-16T12:01:02;30.98;;;14.65;;
59147;SDS011;44930;52.878;6.168;2023-04-16T12:03:40;35.72;;;15.35;;
59147;SDS011;44930;52.878;6.168;2023-04-16T12:06:09;33.20;;;15.30;;
59147;SDS011;44930;52.878;6.168;2023-04-16T12:08:35;23.95;;;12.63;;
59147;SDS011;44930;52.878;6.168;2023-04-16T12:11:01;24.38;;;13.43;;
59147;SDS011;44930;52.878;6.168;2023-04-16T12:13:26;31.30;;;15.18;;
59147;SDS011;44930;52.878;6.168;2023-04-16T12:15:52;33.60;;;17.27;;
59147;SDS011;44930;52.878;6.168;2023-04-16T12:18:20;34.97;;;15.73;;
59147;SDS011;44930;52.878;6.168;2023-04-16T12:20:47;32.30;;;16.08;;
59147;SDS011;44930;52.878;6.168;2023-04-16T12:23:25;43.42;;;14.50;;
59147;SDS011;44930;52.878;6.168;2023-04-16T12:25:51;29.30;;;14.73;;
59147;SDS011;44930;52.878;6.168;2023-04-16T12:28:30;28.27;;;14.10;;
59147;SDS011;44930;52.878;6.168;2023-04-16T12:30:57;34.67;;;13.95;;
59147;SDS011;44930;52.878;6.168;2023-04-16T12:33:23;29.63;;;14.57;;
59147;SDS011;44930;52.878;6.168;2023-04-16T12:35:48;31.58;;;14.00;;
59147;SDS011;44930;52.878;6.168;2023-04-16T12:38:15;28.13;;;14.77;;
59147;SDS011;44930;52.878;6.168;2023-04-16T12:40:41;31.95;;;15.32;;
59147;SDS011;44930;52.878;6.168;2023-04-16T12:43:06;25.60;;;13.80;;
59147;SDS011;44930;52.878;6.168;2023-04-16T12:45:33;28.20;;;14.55;;
59147;SDS011;44930;52.878;6.168;2023-04-16T12:47:59;33.55;;;16.10;;
59147;SDS011;44930;52.878;6.168;2023-04-16T12:50:25;35.72;;;15.77;;
59147;SDS011;44930;52.878;6.168;2023-04-16T12:52:52;33.20;;;15.65;;
59147;SDS011;44930;52.878;6.168;2023-04-16T12:55:17;30.35;;;15.20;;
59147;SDS011;44930;52.878;6.168;2023-04-16T12:57:43;27.15;;;16.27;;
59147;SDS011;44930;52.878;6.168;2023-04-16T13:00:09;27.98;;;14.48;;
59147;SDS011;44930;52.878;6.168;2023-04-16T13:02:35;27.73;;;14.85;;
59147;SDS011;44930;52.878;6.168;2023-04-16T13:05:00;32.90;;;15.23;;
59147;SDS011;44930;52.878;6.168;2023-04-16T13:07:26;27.23;;;15.75;;
59147;SDS011;44930;52.878;6.168;2023-04-16T13:09:53;26.30;;;14.77;;
59147;SDS011;44930;52.878;6.168;2023-04-16T13:12:18;30.33;;;14.55;;
59147;SDS011;44930;52.878;6.168;2023-04-16T13:14:44;24.58;;;14.10;;
59147;SDS011;44930;52.878;6.168;2023-04-16T13:17:10;34.10;;;14.00;;
59147;SDS011;44930;52.878;6.168;2023-04-16T13:19:35;26.77;;;14.40;;
59147;SDS011;44930;52.878;6.168;2023-04-16T13:22:01;21.88;;;12.77;;
59147;SDS011;44930;52.878;6.168;2023-04-16T13:24:26;25.77;;;14.65;;
59147;SDS011;44930;52.878;6.168;2023-04-16T13:26:52;26.73;;;13.48;;
59147;SDS011;44930;52.878;6.168;2023-04-16T13:29:18;30.13;;;13.95;;
59147;SDS011;44930;52.878;6.168;2023-04-16T13:31:44;24.60;;;14.98;;
59147;SDS011;44930;52.878;6.168;2023-04-16T13:34:10;27.05;;;15.43;;
59147;SDS011;44930;52.878;6.168;2023-04-16T13:36:36;23.52;;;14.82;;
59147;SDS011;44930;52.878;6.168;2023-04-16T13:39:02;21.20;;;13.60;;
59147;SDS011;44930;52.878;6.168;2023-04-16T13:41:34;23.45;;;14.60;;
59147;SDS011;44930;52.878;6.168;2023-04-16T13:44:00;24.58;;;13.48;;
59147;SDS011;44930;52.878;6.168;2023-04-16T13:46:26;25.10;;;13.73;;
59147;SDS011;44930;52.878;6.168;2023-04-16T13:48:53;32.90;;;13.05;;
59147;SDS011;44930;52.878;6.168;2023-04-16T13:51:19;30.17;;;15.13;;
59147;SDS011;44930;52.878;6.168;2023-04-16T13:53:44;22.95;;;15.02;;
59147;SDS011;44930;52.878;6.168;2023-04-16T13:56:10;24.38;;;13.65;;
59147;SDS011;44930;52.878;6.168;2023-04-16T13:58:36;27.00;;;14.00;;
59147;SDS011;44930;52.878;6.168;2023-04-16T14:01:02;21.13;;;13.30;;
59147;SDS011;44930;52.878;6.168;2023-04-16T14:03:27;19.92;;;12.65;;
59147;SDS011;44930;52.878;6.168;2023-04-16T14:05:53;21.98;;;14.52;;
59147;SDS011;44930;52.878;6.168;2023-04-16T14:08:18;23.58;;;14.57;;
59147;SDS011;44930;52.878;6.168;2023-04-16T14:10:45;20.42;;;12.43;;
59147;SDS011;44930;52.878;6.168;2023-04-16T14:13:11;23.00;;;13.90;;
59147;SDS011;44930;52.878;6.168;2023-04-16T14:15:37;23.55;;;13.75;;
59147;SDS011;44930;52.878;6.168;2023-04-16T14:18:02;23.08;;;14.55;;
59147;SDS011;44930;52.878;6.168;2023-04-16T14:20:28;23.75;;;11.98;;